Terminal Aerodrome Forecast
Issued by NWS Omaha/Valley, NE

Home | Current Version | Previous Version | Graphics & Text | Print | Product List | Glossary Off
Versions: 1 2 3 4 5 6 7 8 9 10 11 12 13 14 15 16 17 18 19 20 21 22 23 24 25 26 27 28 29 30 31 32 33 34 35 36 37 38 39 40 41 42 43 44

052
FTUS43 KOAX 241518 AAB
TAFOFK
TAF AMD
KOFK 241518Z 2415/2512 34014G22KT 5SM BR VCSH OVC008
     FM241700 36015G23KT P6SM VCSH OVC008
     FM242000 02019G27KT 5SM RA VCTS OVC008CB
     FM242300 02018KT 3SM RA OVC008
     FM250000 01017KT 3SM -RA OVC008
     FM250600 36014KT P6SM OVC003=

USA.gov is the U.S. government's official web portal to all federal, state and local government web resources and services.